createdAt,value
2017-03-22T00:00:16.693Z,4.52
2017-03-22T00:05:13.010Z,4.26
2017-03-22T00:10:09.287Z,4.10
2017-03-22T00:15:05.419Z,4.31
2017-03-22T00:20:01.772Z,4.41
2017-03-22T00:24:58.149Z,4.56
2017-03-22T00:29:54.408Z,4.50
2017-03-22T00:34:50.743Z,4.34
2017-03-22T00:39:48.135Z,4.13
2017-03-22T00:44:44.762Z,4.05
2017-03-22T00:49:40.984Z,4.06
2017-03-22T00:54:37.421Z,3.92
2017-03-22T00:59:34.767Z,3.68
2017-03-22T01:04:30.772Z,3.81
2017-03-22T01:09:26.935Z,3.77
2017-03-22T01:14:23.401Z,3.74
2017-03-22T01:19:19.681Z,3.65
2017-03-22T01:24:16.075Z,3.69
2017-03-22T01:29:12.725Z,3.48
2017-03-22T01:34:09.954Z,3.36
2017-03-22T01:39:06.286Z,3.28
2017-03-22T01:44:02.652Z,3.23
2017-03-22T01:48:58.968Z,3.21
2017-03-22T01:53:55.367Z,2.97
2017-03-22T01:58:51.621Z,2.87
2017-03-22T02:03:47.954Z,2.86
2017-03-22T02:08:44.475Z,2.86
2017-03-22T02:13:40.692Z,2.80
2017-03-22T02:18:36.985Z,2.80
2017-03-22T02:23:34.158Z,2.82
2017-03-22T02:28:30.235Z,2.62
2017-03-22T02:33:26.858Z,2.57
2017-03-22T02:38:23.046Z,2.60
2017-03-22T02:43:19.949Z,2.51
2017-03-22T02:48:16.927Z,2.64
2017-03-22T02:53:13.393Z,2.57
2017-03-22T02:58:09.498Z,2.62
2017-03-22T03:03:06.159Z,2.51
2017-03-22T03:08:03.633Z,2.51
2017-03-22T03:13:00.867Z,2.61
2017-03-22T03:17:57.839Z,2.61
2017-03-22T03:22:54.097Z,2.32
2017-03-22T03:27:50.790Z,2.49
2017-03-22T03:32:47.009Z,2.56
2017-03-22T03:37:43.371Z,2.36
2017-03-22T03:42:39.877Z,2.17
2017-03-22T03:47:36.285Z,2.14
2017-03-22T03:52:33.080Z,2.10
2017-03-22T03:57:29.399Z,2.25
2017-03-22T04:02:25.550Z,2.18
2017-03-22T04:07:22.743Z,2.29
2017-03-22T04:12:19.628Z,2.38
2017-03-22T04:17:16.089Z,2.31
2017-03-22T04:22:12.374Z,2.00
2017-03-22T04:27:09.029Z,2.18
2017-03-22T04:32:05.290Z,2.13
2017-03-22T04:37:01.569Z,2.06
2017-03-22T04:41:57.973Z,1.95
2017-03-22T04:46:55.390Z,1.89
2017-03-22T04:51:52.288Z,2.08
2017-03-22T04:56:48.980Z,2.04
2017-03-22T05:01:45.638Z,1.88
2017-03-22T05:06:41.965Z,1.76
2017-03-22T05:11:38.400Z,1.73
2017-03-22T05:16:35.303Z,1.70
2017-03-22T05:21:31.589Z,1.92
2017-03-22T05:26:29.021Z,1.63
2017-03-22T05:31:26.215Z,1.56
2017-03-22T05:36:22.474Z,1.58
2017-03-22T05:41:18.905Z,1.50
2017-03-22T05:46:16.282Z,1.70
2017-03-22T05:51:12.579Z,1.73
2017-03-22T05:56:09.328Z,1.76
2017-03-22T06:01:05.522Z,1.84
2017-03-22T06:06:01.866Z,2.06
2017-03-22T06:10:58.858Z,2.06
2017-03-22T06:15:55.789Z,2.60
2017-03-22T06:20:52.938Z,3.48
2017-03-22T06:25:49.536Z,3.60
2017-03-22T06:30:47.120Z,2.85
2017-03-22T06:35:43.116Z,2.46
2017-03-22T06:40:39.935Z,3.23
2017-03-22T06:45:37.215Z,4.53
2017-03-22T06:50:34.354Z,4.22
2017-03-22T06:55:31.713Z,5.12
2017-03-22T07:00:28.438Z,5.68
2017-03-22T07:05:25.080Z,4.73
2017-03-22T07:10:21.768Z,4.70
2017-03-22T07:15:18.723Z,4.49
2017-03-22T07:20:15.073Z,4.44
2017-03-22T07:25:11.715Z,4.93
2017-03-22T07:30:09.085Z,5.14
2017-03-22T07:35:05.626Z,4.84
2017-03-22T07:40:02.433Z,5.36
2017-03-22T07:45:00.163Z,6.51
2017-03-22T07:49:56.734Z,7.47
2017-03-22T07:54:54.104Z,9.73
2017-03-22T07:59:51.447Z,8.84
2017-03-22T08:04:49.096Z,9.91
2017-03-22T08:09:46.283Z,9.11
2017-03-22T08:14:42.774Z,9.11
2017-03-22T08:19:40.200Z,8.97
2017-03-22T08:24:36.764Z,9.62
2017-03-22T08:29:33.759Z,8.87
2017-03-22T08:34:30.472Z,7.83
2017-03-22T08:39:26.380Z,7.98
2017-03-22T08:44:22.701Z,9.10
2017-03-22T08:49:19.217Z,8.89
2017-03-22T08:54:15.993Z,9.36
2017-03-22T08:59:12.546Z,8.76
2017-03-22T09:04:09.250Z,8.20
2017-03-22T09:09:05.320Z,7.95
2017-03-22T09:14:01.775Z,8.24
2017-03-22T09:18:58.061Z,8.23
2017-03-22T09:23:54.329Z,8.49
2017-03-22T09:28:50.897Z,8.82
2017-03-22T09:33:47.694Z,8.91
2017-03-22T09:38:43.991Z,8.94
2017-03-22T09:43:40.599Z,9.23
2017-03-22T09:48:37.424Z,9.73
2017-03-22T09:53:34.337Z,9.68
2017-03-22T09:58:31.002Z,10.12
2017-03-22T10:03:27.470Z,11.02
2017-03-22T10:08:24.445Z,11.25
2017-03-22T10:13:22.700Z,11.22
2017-03-22T10:18:19.350Z,10.79
2017-03-22T10:23:16.523Z,11.48
2017-03-22T10:28:13.077Z,11.48
2017-03-22T10:33:10.092Z,12.58
2017-03-22T10:38:06.761Z,12.09
2017-03-22T10:43:04.404Z,11.69
2017-03-22T10:48:00.767Z,12.04
2017-03-22T10:52:57.539Z,11.87
2017-03-22T10:57:53.986Z,13.03
2017-03-22T11:02:51.335Z,14.04
2017-03-22T11:07:49.105Z,15.09
2017-03-22T11:12:47.711Z,16.51
2017-03-22T11:17:45.579Z,16.56
2017-03-22T11:22:43.075Z,15.92
2017-03-22T11:27:39.271Z,16.01
2017-03-22T11:32:36.070Z,16.61
2017-03-22T11:37:32.828Z,14.81
2017-03-22T11:42:28.956Z,13.38
2017-03-22T11:47:24.495Z,12.85
2017-03-22T11:52:19.824Z,12.29
2017-03-22T11:57:15.228Z,12.07
2017-03-22T12:02:11.304Z,11.50
2017-03-22T12:07:07.501Z,12.00
2017-03-22T12:12:03.911Z,11.73
2017-03-22T12:17:00.263Z,11.52
2017-03-22T12:21:56.672Z,11.57
2017-03-22T12:26:53.267Z,11.44
2017-03-22T12:31:49.626Z,11.54
2017-03-22T12:36:46.777Z,12.24
2017-03-22T12:41:44.239Z,13.03
2017-03-22T12:46:41.465Z,13.16
2017-03-22T12:51:38.115Z,12.80
2017-03-22T12:56:35.293Z,12.98
2017-03-22T13:01:31.735Z,12.49
2017-03-22T13:06:28.045Z,12.58
2017-03-22T13:11:24.215Z,12.37
2017-03-22T13:16:20.240Z,12.50
2017-03-22T13:21:16.921Z,12.35
2017-03-22T13:26:13.474Z,12.29
2017-03-22T13:31:10.534Z,12.54
2017-03-22T13:36:07.526Z,13.30
2017-03-22T13:41:04.353Z,12.90
2017-03-22T13:46:00.674Z,13.20
2017-03-22T13:50:57.757Z,12.90
2017-03-22T13:55:55.414Z,12.61
2017-03-22T14:00:51.337Z,11.88
2017-03-22T14:05:47.878Z,12.13
2017-03-22T14:10:43.810Z,12.13
2017-03-22T14:15:39.888Z,12.07
2017-03-22T14:20:36.116Z,12.03
2017-03-22T14:25:32.070Z,11.86
2017-03-22T14:30:28.959Z,12.02
2017-03-22T14:35:26.242Z,11.94
2017-03-22T14:40:23.879Z,12.12
2017-03-22T14:45:20.188Z,12.10
2017-03-22T14:50:16.714Z,11.84
2017-03-22T14:55:12.997Z,11.59
2017-03-22T15:00:09.852Z,11.51
2017-03-22T15:05:06.719Z,11.55
2017-03-22T15:10:04.401Z,11.66
2017-03-22T15:15:00.590Z,11.50
2017-03-22T15:19:57.082Z,11.52
2017-03-22T15:24:53.456Z,11.55
2017-03-22T15:29:49.925Z,11.59
2017-03-22T15:34:46.897Z,11.80
2017-03-22T15:39:43.331Z,11.65
2017-03-22T15:44:40.145Z,11.90
2017-03-22T15:49:36.984Z,11.51
2017-03-22T15:54:33.474Z,11.78
2017-03-22T15:59:29.887Z,11.45
2017-03-22T16:04:27.375Z,11.37
2017-03-22T16:09:23.153Z,11.27
2017-03-22T16:14:19.804Z,11.44
2017-03-22T16:19:16.192Z,11.08
2017-03-22T16:24:12.561Z,10.97
2017-03-22T16:29:08.713Z,11.04
2017-03-22T16:34:05.694Z,10.97
2017-03-22T16:39:02.048Z,10.86
2017-03-22T16:43:58.731Z,10.90
2017-03-22T16:48:55.147Z,10.90
2017-03-22T16:53:51.538Z,10.86
2017-03-22T16:58:48.027Z,10.74
2017-03-22T17:03:44.456Z,10.57
2017-03-22T17:08:40.792Z,10.57
2017-03-22T17:13:36.973Z,10.60
2017-03-22T17:18:33.438Z,10.46
2017-03-22T17:23:29.979Z,10.46
2017-03-22T17:28:27.833Z,10.41
2017-03-22T17:33:23.825Z,10.41
2017-03-22T17:38:20.277Z,10.07
2017-03-22T17:43:17.602Z,10.01
2017-03-22T17:48:13.677Z,9.95
2017-03-22T17:53:10.067Z,9.83
2017-03-22T17:58:06.418Z,9.73
2017-03-22T18:03:03.374Z,9.59
2017-03-22T18:08:00.880Z,9.56
2017-03-22T18:12:56.985Z,9.36
2017-03-22T18:17:53.610Z,9.36
2017-03-22T18:22:49.960Z,9.22
2017-03-22T18:27:46.299Z,9.11
2017-03-22T18:32:42.766Z,8.87
2017-03-22T18:37:39.202Z,8.88
2017-03-22T18:42:36.758Z,8.87
2017-03-22T18:47:32.824Z,8.78
2017-03-22T18:52:29.119Z,8.70
2017-03-22T18:57:26.615Z,8.51
2017-03-22T19:02:22.958Z,8.34
2017-03-22T19:07:19.176Z,8.27
2017-03-22T19:12:15.808Z,8.33
2017-03-22T19:17:12.098Z,8.18
2017-03-22T19:22:09.304Z,8.10
2017-03-22T19:27:05.851Z,8.12
2017-03-22T19:32:04.706Z,7.79
2017-03-22T19:37:00.417Z,7.82
2017-03-22T19:41:56.672Z,7.76
2017-03-22T19:46:53.732Z,7.67
2017-03-22T19:51:49.927Z,7.72
2017-03-22T19:56:46.330Z,7.80
2017-03-22T20:01:43.615Z,7.80
2017-03-22T20:06:40.020Z,7.88
2017-03-22T20:11:36.728Z,8.13
2017-03-22T20:16:35.727Z,8.15
2017-03-22T20:21:32.280Z,8.12
2017-03-22T20:26:29.823Z,8.16
2017-03-22T20:31:26.517Z,8.12
2017-03-22T20:36:23.623Z,7.98
2017-03-22T20:41:20.224Z,7.76
2017-03-22T20:46:17.006Z,7.66
2017-03-22T20:51:13.596Z,7.82
2017-03-22T20:56:10.181Z,7.83
2017-03-22T21:01:07.075Z,7.57
2017-03-22T21:06:03.445Z,7.54
2017-03-22T21:10:59.811Z,7.43
2017-03-22T21:15:56.004Z,7.32
2017-03-22T21:20:54.596Z,7.20
2017-03-22T21:25:50.400Z,7.21
2017-03-22T21:30:47.009Z,7.07
2017-03-22T21:35:43.332Z,7.18
2017-03-22T21:40:39.983Z,7.13
2017-03-22T21:45:36.541Z,6.99
2017-03-22T21:50:32.764Z,7.02
2017-03-22T21:55:29.322Z,6.97
2017-03-22T22:00:25.925Z,6.95
2017-03-22T22:05:22.102Z,6.88
2017-03-22T22:10:18.425Z,6.82
2017-03-22T22:15:16.569Z,6.70
2017-03-22T22:20:12.398Z,6.85
2017-03-22T22:25:08.634Z,6.88
2017-03-22T22:30:05.973Z,7.02
2017-03-22T22:35:02.479Z,7.05
2017-03-22T22:39:59.454Z,7.13
2017-03-22T22:44:56.564Z,7.03
2017-03-22T22:49:52.949Z,7.05
2017-03-22T22:54:49.422Z,7.18
2017-03-22T22:59:46.063Z,7.23
2017-03-22T23:04:43.276Z,7.33
2017-03-22T23:09:39.631Z,7.17
2017-03-22T23:14:35.561Z,7.23
2017-03-22T23:19:31.929Z,7.13
2017-03-22T23:24:28.719Z,7.11
2017-03-22T23:29:25.269Z,7.24
2017-03-22T23:34:22.572Z,7.15
2017-03-22T23:39:18.757Z,7.17
2017-03-22T23:44:15.086Z,7.20
2017-03-22T23:49:11.540Z,7.13
2017-03-22T23:54:07.892Z,7.15
2017-03-22T23:59:04.193Z,6.93
